sensor_id;sensor_type;location;lat;lon;timestamp;P1;durP1;ratioP1;P2;durP2;ratioP2
20794;SDS011;28087;-33.874;151.240;2022-08-03T00:00:17;3.25;;;0.80;;
20794;SDS011;28087;-33.874;151.240;2022-08-03T00:02:54;3.95;;;1.10;;
20794;SDS011;28087;-33.874;151.240;2022-08-03T00:05:32;3.47;;;0.70;;
20794;SDS011;28087;-33.874;151.240;2022-08-03T00:08:29;3.13;;;0.80;;
20794;SDS011;28087;-33.874;151.240;2022-08-03T00:11:09;1.58;;;0.70;;
20794;SDS011;28087;-33.874;151.240;2022-08-03T00:13:46;5.63;;;0.93;;
20794;SDS011;28087;-33.874;151.240;2022-08-03T00:16:22;3.60;;;0.80;;
20794;SDS011;28087;-33.874;151.240;2022-08-03T00:19:01;4.13;;;0.90;;
20794;SDS011;28087;-33.874;151.240;2022-08-03T00:21:40;2.10;;;0.70;;
20794;SDS011;28087;-33.874;151.240;2022-08-03T00:24:21;3.80;;;0.82;;
20794;SDS011;28087;-33.874;151.240;2022-08-03T00:27:03;3.60;;;0.80;;
20794;SDS011;28087;-33.874;151.240;2022-08-03T00:29:47;2.97;;;0.70;;
20794;SDS011;28087;-33.874;151.240;2022-08-03T00:32:29;3.03;;;0.63;;
20794;SDS011;28087;-33.874;151.240;2022-08-03T00:35:15;3.30;;;0.90;;
20794;SDS011;28087;-33.874;151.240;2022-08-03T00:38:17;1.73;;;0.70;;
20794;SDS011;28087;-33.874;151.240;2022-08-03T00:40:54;2.70;;;0.73;;
20794;SDS011;28087;-33.874;151.240;2022-08-03T00:43:37;2.03;;;0.80;;
20794;SDS011;28087;-33.874;151.240;2022-08-03T00:46:15;2.78;;;0.70;;
20794;SDS011;28087;-33.874;151.240;2022-08-03T00:48:54;3.53;;;0.80;;
20794;SDS011;28087;-33.874;151.240;2022-08-03T00:51:30;8.35;;;1.13;;
20794;SDS011;28087;-33.874;151.240;2022-08-03T00:54:11;3.30;;;0.90;;
20794;SDS011;28087;-33.874;151.240;2022-08-03T00:56:49;3.05;;;1.08;;
20794;SDS011;28087;-33.874;151.240;2022-08-03T00:59:31;5.68;;;0.90;;
20794;SDS011;28087;-33.874;151.240;2022-08-03T01:02:11;2.00;;;0.90;;
20794;SDS011;28087;-33.874;151.240;2022-08-03T01:04:47;5.32;;;1.10;;
20794;SDS011;28087;-33.874;151.240;2022-08-03T01:07:29;3.72;;;0.90;;
20794;SDS011;28087;-33.874;151.240;2022-08-03T01:10:18;2.03;;;0.80;;
20794;SDS011;28087;-33.874;151.240;2022-08-03T01:13:05;2.53;;;0.90;;
20794;SDS011;28087;-33.874;151.240;2022-08-03T01:16:11;5.15;;;1.00;;
20794;SDS011;28087;-33.874;151.240;2022-08-03T01:19:09;2.95;;;0.90;;
20794;SDS011;28087;-33.874;151.240;2022-08-03T01:22:04;3.85;;;0.90;;
20794;SDS011;28087;-33.874;151.240;2022-08-03T01:24:56;3.22;;;0.90;;
20794;SDS011;28087;-33.874;151.240;2022-08-03T01:27:42;3.78;;;0.80;;
20794;SDS011;28087;-33.874;151.240;2022-08-03T01:30:35;2.58;;;0.70;;
20794;SDS011;28087;-33.874;151.240;2022-08-03T01:33:16;3.50;;;0.98;;
20794;SDS011;28087;-33.874;151.240;2022-08-03T01:35:57;5.45;;;1.02;;
20794;SDS011;28087;-33.874;151.240;2022-08-03T01:38:37;4.97;;;1.00;;
20794;SDS011;28087;-33.874;151.240;2022-08-03T01:41:17;6.60;;;0.98;;
20794;SDS011;28087;-33.874;151.240;2022-08-03T01:44:03;2.45;;;0.70;;
20794;SDS011;28087;-33.874;151.240;2022-08-03T01:47:02;2.08;;;0.82;;
20794;SDS011;28087;-33.874;151.240;2022-08-03T01:49:39;4.65;;;0.75;;
20794;SDS011;28087;-33.874;151.240;2022-08-03T01:52:20;3.50;;;1.00;;
20794;SDS011;28087;-33.874;151.240;2022-08-03T01:54:57;2.47;;;0.90;;
20794;SDS011;28087;-33.874;151.240;2022-08-03T01:57:38;2.17;;;0.90;;
20794;SDS011;28087;-33.874;151.240;2022-08-03T02:00:35;2.50;;;0.88;;
20794;SDS011;28087;-33.874;151.240;2022-08-03T02:03:15;3.97;;;0.93;;
20794;SDS011;28087;-33.874;151.240;2022-08-03T02:05:58;3.25;;;0.95;;
20794;SDS011;28087;-33.874;151.240;2022-08-03T02:08:56;2.22;;;0.75;;
20794;SDS011;28087;-33.874;151.240;2022-08-03T02:11:36;4.43;;;0.98;;
20794;SDS011;28087;-33.874;151.240;2022-08-03T02:14:13;3.30;;;1.00;;
20794;SDS011;28087;-33.874;151.240;2022-08-03T02:16:51;2.83;;;0.90;;
20794;SDS011;28087;-33.874;151.240;2022-08-03T02:19:31;3.97;;;1.00;;
20794;SDS011;28087;-33.874;151.240;2022-08-03T02:22:09;2.55;;;0.88;;
20794;SDS011;28087;-33.874;151.240;2022-08-03T02:24:46;3.30;;;0.90;;
20794;SDS011;28087;-33.874;151.240;2022-08-03T02:27:22;3.30;;;0.88;;
20794;SDS011;28087;-33.874;151.240;2022-08-03T02:30:02;3.63;;;0.90;;
20794;SDS011;28087;-33.874;151.240;2022-08-03T02:32:43;3.67;;;0.82;;
20794;SDS011;28087;-33.874;151.240;2022-08-03T02:35:27;1.77;;;0.70;;
20794;SDS011;28087;-33.874;151.240;2022-08-03T02:38:09;3.65;;;1.05;;
20794;SDS011;28087;-33.874;151.240;2022-08-03T02:40:48;5.88;;;1.00;;
20794;SDS011;28087;-33.874;151.240;2022-08-03T02:43:25;6.78;;;1.20;;
20794;SDS011;28087;-33.874;151.240;2022-08-03T02:46:27;3.22;;;0.98;;
20794;SDS011;28087;-33.874;151.240;2022-08-03T02:49:07;2.60;;;0.70;;
20794;SDS011;28087;-33.874;151.240;2022-08-03T02:52:09;4.22;;;1.10;;
20794;SDS011;28087;-33.874;151.240;2022-08-03T02:54:51;4.32;;;0.95;;
20794;SDS011;28087;-33.874;151.240;2022-08-03T02:57:29;4.00;;;1.08;;
20794;SDS011;28087;-33.874;151.240;2022-08-03T03:00:11;2.80;;;0.95;;
20794;SDS011;28087;-33.874;151.240;2022-08-03T03:02:57;4.25;;;0.90;;
20794;SDS011;28087;-33.874;151.240;2022-08-03T03:05:37;3.17;;;0.90;;
20794;SDS011;28087;-33.874;151.240;2022-08-03T03:08:28;3.05;;;1.00;;
20794;SDS011;28087;-33.874;151.240;2022-08-03T03:11:07;2.63;;;0.90;;
20794;SDS011;28087;-33.874;151.240;2022-08-03T03:13:50;3.13;;;0.90;;
20794;SDS011;28087;-33.874;151.240;2022-08-03T03:16:29;2.92;;;0.90;;
20794;SDS011;28087;-33.874;151.240;2022-08-03T03:19:09;3.92;;;0.80;;
20794;SDS011;28087;-33.874;151.240;2022-08-03T03:21:49;3.33;;;0.82;;
20794;SDS011;28087;-33.874;151.240;2022-08-03T03:24:33;4.68;;;0.95;;
20794;SDS011;28087;-33.874;151.240;2022-08-03T03:27:10;4.55;;;0.88;;
20794;SDS011;28087;-33.874;151.240;2022-08-03T03:29:51;4.88;;;1.00;;
20794;SDS011;28087;-33.874;151.240;2022-08-03T03:32:28;3.53;;;1.00;;
20794;SDS011;28087;-33.874;151.240;2022-08-03T03:35:07;2.33;;;1.00;;
20794;SDS011;28087;-33.874;151.240;2022-08-03T03:37:46;2.50;;;1.00;;
20794;SDS011;28087;-33.874;151.240;2022-08-03T03:40:26;2.97;;;0.80;;
20794;SDS011;28087;-33.874;151.240;2022-08-03T03:43:06;1.90;;;0.85;;
20794;SDS011;28087;-33.874;151.240;2022-08-03T03:45:44;2.70;;;0.80;;
20794;SDS011;28087;-33.874;151.240;2022-08-03T03:48:24;2.25;;;0.90;;
20794;SDS011;28087;-33.874;151.240;2022-08-03T03:51:01;3.58;;;0.82;;
20794;SDS011;28087;-33.874;151.240;2022-08-03T03:53:38;3.28;;;0.80;;
20794;SDS011;28087;-33.874;151.240;2022-08-03T03:56:19;4.40;;;0.90;;
20794;SDS011;28087;-33.874;151.240;2022-08-03T03:58:56;3.30;;;0.73;;
20794;SDS011;28087;-33.874;151.240;2022-08-03T04:01:34;4.70;;;1.00;;
20794;SDS011;28087;-33.874;151.240;2022-08-03T04:04:13;3.90;;;0.80;;
20794;SDS011;28087;-33.874;151.240;2022-08-03T04:07:06;3.28;;;0.90;;
20794;SDS011;28087;-33.874;151.240;2022-08-03T04:09:55;2.08;;;0.70;;
20794;SDS011;28087;-33.874;151.240;2022-08-03T04:12:54;2.08;;;0.80;;
20794;SDS011;28087;-33.874;151.240;2022-08-03T04:15:33;2.97;;;0.63;;
20794;SDS011;28087;-33.874;151.240;2022-08-03T04:18:13;2.97;;;0.80;;
20794;SDS011;28087;-33.874;151.240;2022-08-03T04:20:52;2.45;;;0.73;;
20794;SDS011;28087;-33.874;151.240;2022-08-03T04:23:39;2.15;;;0.70;;
20794;SDS011;28087;-33.874;151.240;2022-08-03T04:26:21;3.30;;;0.70;;
20794;SDS011;28087;-33.874;151.240;2022-08-03T04:29:07;3.05;;;0.75;;
20794;SDS011;28087;-33.874;151.240;2022-08-03T04:31:45;1.05;;;0.60;;
20794;SDS011;28087;-33.874;151.240;2022-08-03T04:34:23;5.53;;;0.80;;
20794;SDS011;28087;-33.874;151.240;2022-08-03T04:37:00;1.90;;;0.70;;
20794;SDS011;28087;-33.874;151.240;2022-08-03T04:39:44;3.40;;;0.88;;
20794;SDS011;28087;-33.874;151.240;2022-08-03T04:42:26;3.42;;;0.80;;
20794;SDS011;28087;-33.874;151.240;2022-08-03T04:45:08;2.05;;;0.80;;
20794;SDS011;28087;-33.874;151.240;2022-08-03T04:47:50;3.47;;;1.00;;
20794;SDS011;28087;-33.874;151.240;2022-08-03T04:50:33;2.17;;;0.82;;
20794;SDS011;28087;-33.874;151.240;2022-08-03T04:53:14;2.17;;;0.90;;
20794;SDS011;28087;-33.874;151.240;2022-08-03T04:55:52;4.43;;;0.90;;
20794;SDS011;28087;-33.874;151.240;2022-08-03T04:58:31;4.03;;;0.90;;
20794;SDS011;28087;-33.874;151.240;2022-08-03T05:01:11;1.42;;;0.80;;
20794;SDS011;28087;-33.874;151.240;2022-08-03T05:03:49;3.00;;;0.90;;
20794;SDS011;28087;-33.874;151.240;2022-08-03T05:06:26;1.42;;;0.60;;
20794;SDS011;28087;-33.874;151.240;2022-08-03T05:09:03;2.22;;;0.73;;
20794;SDS011;28087;-33.874;151.240;2022-08-03T05:11:40;2.42;;;0.80;;
20794;SDS011;28087;-33.874;151.240;2022-08-03T05:14:17;4.20;;;0.90;;
20794;SDS011;28087;-33.874;151.240;2022-08-03T05:17:00;3.78;;;0.88;;
20794;SDS011;28087;-33.874;151.240;2022-08-03T05:19:36;2.63;;;0.80;;
20794;SDS011;28087;-33.874;151.240;2022-08-03T05:22:15;4.80;;;1.25;;
20794;SDS011;28087;-33.874;151.240;2022-08-03T05:24:53;5.03;;;1.00;;
20794;SDS011;28087;-33.874;151.240;2022-08-03T05:27:29;3.28;;;1.00;;
20794;SDS011;28087;-33.874;151.240;2022-08-03T05:30:06;5.53;;;1.00;;
20794;SDS011;28087;-33.874;151.240;2022-08-03T05:33:06;5.63;;;1.00;;
20794;SDS011;28087;-33.874;151.240;2022-08-03T05:35:45;3.10;;;0.90;;
20794;SDS011;28087;-33.874;151.240;2022-08-03T05:38:32;4.50;;;0.90;;
20794;SDS011;28087;-33.874;151.240;2022-08-03T05:41:09;7.10;;;1.20;;
20794;SDS011;28087;-33.874;151.240;2022-08-03T05:43:53;5.47;;;1.08;;
20794;SDS011;28087;-33.874;151.240;2022-08-03T05:46:32;3.65;;;1.00;;
20794;SDS011;28087;-33.874;151.240;2022-08-03T05:49:13;4.93;;;1.27;;
20794;SDS011;28087;-33.874;151.240;2022-08-03T05:51:52;9.32;;;1.52;;
20794;SDS011;28087;-33.874;151.240;2022-08-03T05:54:44;4.32;;;1.10;;
20794;SDS011;28087;-33.874;151.240;2022-08-03T05:57:25;8.30;;;1.83;;
20794;SDS011;28087;-33.874;151.240;2022-08-03T06:00:03;4.65;;;1.30;;
20794;SDS011;28087;-33.874;151.240;2022-08-03T06:02:45;7.22;;;1.40;;
20794;SDS011;28087;-33.874;151.240;2022-08-03T06:05:23;6.60;;;1.60;;
20794;SDS011;28087;-33.874;151.240;2022-08-03T06:07:59;5.95;;;1.27;;
20794;SDS011;28087;-33.874;151.240;2022-08-03T06:10:36;7.63;;;1.30;;
20794;SDS011;28087;-33.874;151.240;2022-08-03T06:13:15;3.70;;;1.10;;
20794;SDS011;28087;-33.874;151.240;2022-08-03T06:15:52;6.60;;;1.40;;
20794;SDS011;28087;-33.874;151.240;2022-08-03T06:18:30;5.50;;;1.27;;
20794;SDS011;28087;-33.874;151.240;2022-08-03T06:21:10;6.65;;;1.23;;
20794;SDS011;28087;-33.874;151.240;2022-08-03T06:23:47;10.45;;;1.67;;
20794;SDS011;28087;-33.874;151.240;2022-08-03T06:26:25;8.18;;;1.50;;
20794;SDS011;28087;-33.874;151.240;2022-08-03T06:29:01;6.85;;;1.30;;
20794;SDS011;28087;-33.874;151.240;2022-08-03T06:31:41;10.50;;;1.85;;
20794;SDS011;28087;-33.874;151.240;2022-08-03T06:34:18;8.20;;;1.70;;
20794;SDS011;28087;-33.874;151.240;2022-08-03T06:37:06;6.22;;;1.73;;
20794;SDS011;28087;-33.874;151.240;2022-08-03T06:39:42;7.93;;;1.52;;
20794;SDS011;28087;-33.874;151.240;2022-08-03T06:42:20;6.07;;;1.38;;
20794;SDS011;28087;-33.874;151.240;2022-08-03T06:44:59;5.53;;;1.58;;
20794;SDS011;28087;-33.874;151.240;2022-08-03T06:47:37;8.45;;;1.90;;
20794;SDS011;28087;-33.874;151.240;2022-08-03T06:50:12;7.20;;;1.70;;
20794;SDS011;28087;-33.874;151.240;2022-08-03T06:52:58;9.52;;;1.90;;
20794;SDS011;28087;-33.874;151.240;2022-08-03T06:55:35;7.90;;;1.90;;
20794;SDS011;28087;-33.874;151.240;2022-08-03T06:58:19;8.10;;;1.73;;
20794;SDS011;28087;-33.874;151.240;2022-08-03T07:00:56;9.45;;;1.98;;
20794;SDS011;28087;-33.874;151.240;2022-08-03T07:03:36;12.23;;;2.42;;
20794;SDS011;28087;-33.874;151.240;2022-08-03T07:06:22;10.13;;;2.25;;
20794;SDS011;28087;-33.874;151.240;2022-08-03T07:09:08;13.88;;;2.28;;
20794;SDS011;28087;-33.874;151.240;2022-08-03T07:11:46;10.82;;;2.17;;
20794;SDS011;28087;-33.874;151.240;2022-08-03T07:14:23;12.82;;;2.67;;
20794;SDS011;28087;-33.874;151.240;2022-08-03T07:17:10;13.60;;;2.60;;
20794;SDS011;28087;-33.874;151.240;2022-08-03T07:19:46;15.82;;;2.63;;
20794;SDS011;28087;-33.874;151.240;2022-08-03T07:22:34;11.98;;;2.35;;
20794;SDS011;28087;-33.874;151.240;2022-08-03T07:25:12;14.10;;;2.70;;
20794;SDS011;28087;-33.874;151.240;2022-08-03T07:27:51;12.57;;;2.53;;
20794;SDS011;28087;-33.874;151.240;2022-08-03T07:30:29;13.60;;;2.70;;
20794;SDS011;28087;-33.874;151.240;2022-08-03T07:33:06;13.23;;;2.40;;
20794;SDS011;28087;-33.874;151.240;2022-08-03T07:35:43;13.60;;;2.90;;
20794;SDS011;28087;-33.874;151.240;2022-08-03T07:38:20;11.90;;;3.03;;
20794;SDS011;28087;-33.874;151.240;2022-08-03T07:41:06;15.40;;;2.92;;
20794;SDS011;28087;-33.874;151.240;2022-08-03T07:43:41;14.57;;;3.15;;
20794;SDS011;28087;-33.874;151.240;2022-08-03T07:46:18;15.82;;;3.33;;
20794;SDS011;28087;-33.874;151.240;2022-08-03T07:48:57;13.90;;;3.22;;
20794;SDS011;28087;-33.874;151.240;2022-08-03T07:51:36;18.63;;;3.72;;
20794;SDS011;28087;-33.874;151.240;2022-08-03T07:54:16;16.92;;;3.60;;
20794;SDS011;28087;-33.874;151.240;2022-08-03T07:56:56;17.80;;;3.30;;
20794;SDS011;28087;-33.874;151.240;2022-08-03T07:59:32;14.30;;;2.92;;
20794;SDS011;28087;-33.874;151.240;2022-08-03T08:02:39;20.80;;;3.90;;
20794;SDS011;28087;-33.874;151.240;2022-08-03T08:05:15;21.38;;;3.58;;
20794;SDS011;28087;-33.874;151.240;2022-08-03T08:07:51;16.02;;;3.35;;
20794;SDS011;28087;-33.874;151.240;2022-08-03T08:10:31;16.52;;;3.15;;
20794;SDS011;28087;-33.874;151.240;2022-08-03T08:13:10;14.93;;;3.58;;
20794;SDS011;28087;-33.874;151.240;2022-08-03T08:15:48;18.83;;;3.72;;
20794;SDS011;28087;-33.874;151.240;2022-08-03T08:18:30;13.60;;;3.00;;
20794;SDS011;28087;-33.874;151.240;2022-08-03T08:21:07;15.85;;;3.60;;
20794;SDS011;28087;-33.874;151.240;2022-08-03T08:23:45;11.45;;;2.58;;
20794;SDS011;28087;-33.874;151.240;2022-08-03T08:26:26;12.07;;;2.95;;
20794;SDS011;28087;-33.874;151.240;2022-08-03T08:29:06;12.73;;;2.75;;
20794;SDS011;28087;-33.874;151.240;2022-08-03T08:31:43;10.88;;;2.80;;
20794;SDS011;28087;-33.874;151.240;2022-08-03T08:34:30;8.80;;;2.63;;
20794;SDS011;28087;-33.874;151.240;2022-08-03T08:37:08;8.63;;;2.55;;
20794;SDS011;28087;-33.874;151.240;2022-08-03T08:39:44;11.68;;;2.50;;
20794;SDS011;28087;-33.874;151.240;2022-08-03T08:42:23;13.05;;;2.50;;
20794;SDS011;28087;-33.874;151.240;2022-08-03T08:45:03;13.98;;;2.45;;
20794;SDS011;28087;-33.874;151.240;2022-08-03T08:47:46;8.15;;;2.28;;
20794;SDS011;28087;-33.874;151.240;2022-08-03T08:50:32;7.75;;;2.40;;
20794;SDS011;28087;-33.874;151.240;2022-08-03T08:53:16;11.63;;;2.55;;
20794;SDS011;28087;-33.874;151.240;2022-08-03T08:55:58;9.85;;;2.60;;
20794;SDS011;28087;-33.874;151.240;2022-08-03T08:58:37;10.00;;;2.78;;
20794;SDS011;28087;-33.874;151.240;2022-08-03T09:01:20;11.57;;;3.10;;
20794;SDS011;28087;-33.874;151.240;2022-08-03T09:03:57;12.38;;;3.08;;
20794;SDS011;28087;-33.874;151.240;2022-08-03T09:06:39;12.80;;;2.60;;
20794;SDS011;28087;-33.874;151.240;2022-08-03T09:09:40;9.73;;;2.50;;
20794;SDS011;28087;-33.874;151.240;2022-08-03T09:12:39;8.38;;;2.72;;
20794;SDS011;28087;-33.874;151.240;2022-08-03T09:15:24;8.90;;;2.30;;
20794;SDS011;28087;-33.874;151.240;2022-08-03T09:18:06;10.57;;;2.70;;
20794;SDS011;28087;-33.874;151.240;2022-08-03T09:20:46;8.88;;;2.40;;
20794;SDS011;28087;-33.874;151.240;2022-08-03T09:23:22;7.45;;;2.45;;
20794;SDS011;28087;-33.874;151.240;2022-08-03T09:26:30;7.75;;;2.42;;
20794;SDS011;28087;-33.874;151.240;2022-08-03T09:29:09;8.60;;;2.60;;
20794;SDS011;28087;-33.874;151.240;2022-08-03T09:31:58;9.50;;;2.25;;
20794;SDS011;28087;-33.874;151.240;2022-08-03T09:34:40;10.20;;;2.40;;
20794;SDS011;28087;-33.874;151.240;2022-08-03T09:37:18;4.47;;;1.83;;
20794;SDS011;28087;-33.874;151.240;2022-08-03T09:40:33;7.95;;;2.10;;
20794;SDS011;28087;-33.874;151.240;2022-08-03T09:43:12;8.55;;;2.20;;
20794;SDS011;28087;-33.874;151.240;2022-08-03T09:46:00;8.18;;;2.10;;
20794;SDS011;28087;-33.874;151.240;2022-08-03T09:48:38;10.40;;;2.22;;
20794;SDS011;28087;-33.874;151.240;2022-08-03T09:51:19;7.72;;;2.25;;
20794;SDS011;28087;-33.874;151.240;2022-08-03T09:54:28;10.10;;;2.75;;
20794;SDS011;28087;-33.874;151.240;2022-08-03T09:57:20;7.68;;;2.17;;
20794;SDS011;28087;-33.874;151.240;2022-08-03T10:00:04;8.18;;;2.28;;
20794;SDS011;28087;-33.874;151.240;2022-08-03T10:02:43;8.57;;;2.55;;
20794;SDS011;28087;-33.874;151.240;2022-08-03T10:05:30;7.57;;;2.30;;
20794;SDS011;28087;-33.874;151.240;2022-08-03T10:08:15;5.45;;;2.10;;
20794;SDS011;28087;-33.874;151.240;2022-08-03T10:11:13;5.35;;;2.10;;
20794;SDS011;28087;-33.874;151.240;2022-08-03T10:14:10;6.40;;;2.10;;
20794;SDS011;28087;-33.874;151.240;2022-08-03T10:16:53;5.93;;;2.03;;
20794;SDS011;28087;-33.874;151.240;2022-08-03T10:19:31;4.63;;;1.92;;
20794;SDS011;28087;-33.874;151.240;2022-08-03T10:22:11;7.18;;;1.83;;
20794;SDS011;28087;-33.874;151.240;2022-08-03T10:24:58;4.60;;;1.83;;
20794;SDS011;28087;-33.874;151.240;2022-08-03T10:27:46;5.65;;;1.80;;
20794;SDS011;28087;-33.874;151.240;2022-08-03T10:30:27;7.05;;;2.08;;
20794;SDS011;28087;-33.874;151.240;2022-08-03T10:33:06;6.85;;;1.85;;
20794;SDS011;28087;-33.874;151.240;2022-08-03T10:36:11;7.40;;;1.90;;
20794;SDS011;28087;-33.874;151.240;2022-08-03T10:38:53;5.10;;;1.98;;
20794;SDS011;28087;-33.874;151.240;2022-08-03T10:41:46;4.50;;;1.83;;
20794;SDS011;28087;-33.874;151.240;2022-08-03T10:44:32;6.80;;;2.13;;
20794;SDS011;28087;-33.874;151.240;2022-08-03T10:47:13;7.57;;;2.10;;
20794;SDS011;28087;-33.874;151.240;2022-08-03T10:49:50;10.85;;;2.63;;
20794;SDS011;28087;-33.874;151.240;2022-08-03T10:52:27;12.25;;;3.00;;
20794;SDS011;28087;-33.874;151.240;2022-08-03T11:01:48;13.90;;;3.13;;
20794;SDS011;28087;-33.874;151.240;2022-08-03T11:04:32;11.55;;;2.65;;
20794;SDS011;28087;-33.874;151.240;2022-08-03T11:07:18;14.52;;;2.92;;
20794;SDS011;28087;-33.874;151.240;2022-08-03T11:09:56;12.05;;;3.00;;
20794;SDS011;28087;-33.874;151.240;2022-08-03T11:12:39;9.23;;;2.60;;
20794;SDS011;28087;-33.874;151.240;2022-08-03T11:15:19;5.82;;;2.17;;
20794;SDS011;28087;-33.874;151.240;2022-08-03T11:18:08;5.72;;;2.10;;
20794;SDS011;28087;-33.874;151.240;2022-08-03T11:20:49;9.57;;;2.00;;
20794;SDS011;28087;-33.874;151.240;2022-08-03T11:23:42;5.35;;;1.80;;
20794;SDS011;28087;-33.874;151.240;2022-08-03T11:26:34;5.22;;;1.60;;
20794;SDS011;28087;-33.874;151.240;2022-08-03T11:29:28;4.93;;;1.55;;
20794;SDS011;28087;-33.874;151.240;2022-08-03T11:32:13;3.33;;;1.52;;
20794;SDS011;28087;-33.874;151.240;2022-08-03T11:35:32;4.72;;;1.60;;
20794;SDS011;28087;-33.874;151.240;2022-08-03T11:38:16;4.70;;;1.67;;
20794;SDS011;28087;-33.874;151.240;2022-08-03T11:40:54;4.43;;;1.50;;
20794;SDS011;28087;-33.874;151.240;2022-08-03T11:43:45;5.47;;;1.42;;
20794;SDS011;28087;-33.874;151.240;2022-08-03T11:46:22;6.35;;;1.60;;
20794;SDS011;28087;-33.874;151.240;2022-08-03T11:49:04;4.43;;;1.48;;
20794;SDS011;28087;-33.874;151.240;2022-08-03T11:51:42;6.20;;;1.70;;
20794;SDS011;28087;-33.874;151.240;2022-08-03T11:54:19;4.20;;;1.63;;
20794;SDS011;28087;-33.874;151.240;2022-08-03T11:57:06;6.32;;;2.00;;
20794;SDS011;28087;-33.874;151.240;2022-08-03T12:03:10;9.65;;;1.83;;
20794;SDS011;28087;-33.874;151.240;2022-08-03T12:05:51;4.00;;;1.60;;
20794;SDS011;28087;-33.874;151.240;2022-08-03T12:08:31;7.70;;;1.98;;
20794;SDS011;28087;-33.874;151.240;2022-08-03T12:11:11;4.40;;;1.67;;
20794;SDS011;28087;-33.874;151.240;2022-08-03T12:13:49;5.57;;;1.60;;
20794;SDS011;28087;-33.874;151.240;2022-08-03T12:16:46;7.28;;;1.73;;
20794;SDS011;28087;-33.874;151.240;2022-08-03T12:19:24;4.15;;;1.60;;
20794;SDS011;28087;-33.874;151.240;2022-08-03T12:22:09;7.70;;;1.80;;
20794;SDS011;28087;-33.874;151.240;2022-08-03T12:24:47;4.32;;;1.58;;
20794;SDS011;28087;-33.874;151.240;2022-08-03T12:27:25;7.03;;;1.70;;
20794;SDS011;28087;-33.874;151.240;2022-08-03T12:30:04;5.15;;;1.77;;
20794;SDS011;28087;-33.874;151.240;2022-08-03T12:32:43;4.20;;;1.67;;
20794;SDS011;28087;-33.874;151.240;2022-08-03T12:35:22;5.15;;;1.73;;
20794;SDS011;28087;-33.874;151.240;2022-08-03T12:38:01;6.15;;;1.80;;
20794;SDS011;28087;-33.874;151.240;2022-08-03T12:40:38;7.45;;;2.08;;
20794;SDS011;28087;-33.874;151.240;2022-08-03T12:43:14;8.63;;;2.05;;
20794;SDS011;28087;-33.874;151.240;2022-08-03T12:46:05;8.73;;;2.38;;
20794;SDS011;28087;-33.874;151.240;2022-08-03T12:49:00;10.20;;;2.30;;
20794;SDS011;28087;-33.874;151.240;2022-08-03T12:51:55;11.10;;;2.20;;
20794;SDS011;28087;-33.874;151.240;2022-08-03T12:54:39;7.93;;;2.05;;
20794;SDS011;28087;-33.874;151.240;2022-08-03T12:57:17;7.22;;;2.15;;
20794;SDS011;28087;-33.874;151.240;2022-08-03T12:59:53;11.18;;;2.28;;
20794;SDS011;28087;-33.874;151.240;2022-08-03T13:02:59;7.45;;;2.40;;
20794;SDS011;28087;-33.874;151.240;2022-08-03T13:05:58;8.02;;;2.30;;
20794;SDS011;28087;-33.874;151.240;2022-08-03T13:08:37;6.88;;;2.00;;
20794;SDS011;28087;-33.874;151.240;2022-08-03T13:11:20;7.55;;;2.20;;
20794;SDS011;28087;-33.874;151.240;2022-08-03T13:14:20;8.43;;;2.20;;
20794;SDS011;28087;-33.874;151.240;2022-08-03T13:17:05;9.60;;;2.17;;
20794;SDS011;28087;-33.874;151.240;2022-08-03T13:19:43;5.63;;;1.98;;
20794;SDS011;28087;-33.874;151.240;2022-08-03T13:22:21;9.48;;;2.30;;
20794;SDS011;28087;-33.874;151.240;2022-08-03T13:25:24;6.00;;;2.15;;
20794;SDS011;28087;-33.874;151.240;2022-08-03T13:28:03;7.95;;;2.05;;
20794;SDS011;28087;-33.874;151.240;2022-08-03T13:30:43;6.03;;;2.20;;
20794;SDS011;28087;-33.874;151.240;2022-08-03T13:33:19;6.43;;;2.10;;
20794;SDS011;28087;-33.874;151.240;2022-08-03T13:35:55;7.15;;;2.20;;
20794;SDS011;28087;-33.874;151.240;2022-08-03T13:38:32;10.73;;;2.30;;
20794;SDS011;28087;-33.874;151.240;2022-08-03T13:41:09;8.20;;;2.30;;
20794;SDS011;28087;-33.874;151.240;2022-08-03T13:43:59;8.07;;;2.47;;
20794;SDS011;28087;-33.874;151.240;2022-08-03T13:46:56;7.70;;;2.38;;
20794;SDS011;28087;-33.874;151.240;2022-08-03T13:49:33;7.90;;;2.33;;
20794;SDS011;28087;-33.874;151.240;2022-08-03T13:52:11;6.90;;;2.20;;
20794;SDS011;28087;-33.874;151.240;2022-08-03T13:54:47;9.45;;;2.30;;
20794;SDS011;28087;-33.874;151.240;2022-08-03T13:57:23;7.05;;;2.30;;
20794;SDS011;28087;-33.874;151.240;2022-08-03T14:00:21;8.77;;;2.92;;
20794;SDS011;28087;-33.874;151.240;2022-08-03T14:02:59;7.50;;;2.42;;
20794;SDS011;28087;-33.874;151.240;2022-08-03T14:05:46;8.65;;;2.30;;
20794;SDS011;28087;-33.874;151.240;2022-08-03T14:08:23;7.45;;;2.30;;
20794;SDS011;28087;-33.874;151.240;2022-08-03T14:11:09;6.35;;;2.20;;
20794;SDS011;28087;-33.874;151.240;2022-08-03T14:13:45;6.32;;;2.28;;
20794;SDS011;28087;-33.874;151.240;2022-08-03T14:16:24;4.85;;;2.00;;
20794;SDS011;28087;-33.874;151.240;2022-08-03T14:19:02;6.60;;;2.20;;
20794;SDS011;28087;-33.874;151.240;2022-08-03T14:21:40;6.80;;;2.30;;
20794;SDS011;28087;-33.874;151.240;2022-08-03T14:24:34;8.45;;;2.30;;
20794;SDS011;28087;-33.874;151.240;2022-08-03T14:27:13;10.13;;;2.30;;
20794;SDS011;28087;-33.874;151.240;2022-08-03T14:29:51;6.55;;;2.10;;
20794;SDS011;28087;-33.874;151.240;2022-08-03T14:32:32;7.78;;;2.00;;
20794;SDS011;28087;-33.874;151.240;2022-08-03T14:35:09;5.40;;;2.00;;
20794;SDS011;28087;-33.874;151.240;2022-08-03T14:37:46;6.10;;;2.17;;
20794;SDS011;28087;-33.874;151.240;2022-08-03T14:40:24;4.20;;;2.08;;
20794;SDS011;28087;-33.874;151.240;2022-08-03T14:43:13;4.28;;;2.05;;
20794;SDS011;28087;-33.874;151.240;2022-08-03T14:45:52;7.05;;;2.40;;
20794;SDS011;28087;-33.874;151.240;2022-08-03T14:48:32;4.65;;;2.20;;
20794;SDS011;28087;-33.874;151.240;2022-08-03T14:51:31;4.63;;;2.08;;
20794;SDS011;28087;-33.874;151.240;2022-08-03T14:54:21;6.50;;;2.30;;
20794;SDS011;28087;-33.874;151.240;2022-08-03T14:57:06;4.78;;;2.03;;
20794;SDS011;28087;-33.874;151.240;2022-08-03T14:59:45;4.05;;;2.00;;
20794;SDS011;28087;-33.874;151.240;2022-08-03T15:02:26;4.20;;;2.40;;
20794;SDS011;28087;-33.874;151.240;2022-08-03T15:05:07;6.05;;;2.10;;
20794;SDS011;28087;-33.874;151.240;2022-08-03T15:07:45;5.65;;;2.15;;
20794;SDS011;28087;-33.874;151.240;2022-08-03T15:10:23;6.22;;;2.20;;
20794;SDS011;28087;-33.874;151.240;2022-08-03T15:13:09;6.18;;;2.10;;
20794;SDS011;28087;-33.874;151.240;2022-08-03T15:15:46;4.82;;;2.10;;
20794;SDS011;28087;-33.874;151.240;2022-08-03T15:18:24;5.40;;;2.10;;
20794;SDS011;28087;-33.874;151.240;2022-08-03T15:21:02;4.78;;;2.10;;
20794;SDS011;28087;-33.874;151.240;2022-08-03T15:24:01;6.72;;;2.20;;
20794;SDS011;28087;-33.874;151.240;2022-08-03T15:26:40;5.25;;;2.33;;
20794;SDS011;28087;-33.874;151.240;2022-08-03T15:29:19;6.40;;;2.50;;
20794;SDS011;28087;-33.874;151.240;2022-08-03T15:32:16;8.30;;;2.10;;
20794;SDS011;28087;-33.874;151.240;2022-08-03T15:34:56;7.75;;;2.60;;
20794;SDS011;28087;-33.874;151.240;2022-08-03T15:37:40;5.38;;;2.28;;
20794;SDS011;28087;-33.874;151.240;2022-08-03T15:40:17;4.97;;;2.25;;
20794;SDS011;28087;-33.874;151.240;2022-08-03T15:42:56;5.05;;;2.15;;